Menu Close Menu
Station Historical Data
Daily Summary for April 17, 2017 Units:  Both    English   Metric
« Previous Day
Next Day »
Daily Weekly Monthly Yearly Custom
  High: Low: Average:
Temperature: 80.1 °F /  26.7 °C 60.1 °F /  15.6 °C 68.4 °F /  20.2 °C
Dew Point: 62.9 °F /  17.2 °C 54.2 °F /  12.3 °C 58.5 °F /  14.7 °C
Humidity: 89% 48% 72%
Wind Speed: 1.0mph /  1.6km/h - 0mph /  0km/h
Wind Gust: 5.0mph /  8km/h - -
Wind- - West
Pressure: 30.16 in /  1021.2 hPa 30.04 in /  1017.2 hPa -
Precipitation: 0.00 in /  0 mm    
Historical Graphs
 
 
Tabular Data for April 17, 2017
Time Temperature Dew Point Pressure Wind Wind Speed Wind Gust Humidity Rainfall Rate (Hourly) solar Conditions
00:00 64.8 °F /  18.2 °C 56.3 °F /  13.5 °C 30.15in /  1020.9hPa Calm     74% 0.00in /  0mm WeatherDisplay:10.37 W/m2 SCT
00:15 64.4 °F /  18 °C 56.3 °F /  13.5 °C 30.15in /  1020.9hPa Calm     75% 0.00in /  0mm WeatherDisplay:10.37 W/m2 SCT
00:30 63.9 °F /  17.7 °C 56.2 °F /  13.4 °C 30.15in /  1020.9hPa Calm     76% 0.00in /  0mm WeatherDisplay:10.37 W/m2 SCT
00:45 63.4 °F /  17.4 °C 56.1 °F /  13.4 °C 30.15in /  1020.9hPa Calm     77% 0.00in /  0mm WeatherDisplay:10.37 W/m2 SCT
01:00 63.1 °F /  17.3 °C 56.1 °F /  13.4 °C 30.14in /  1020.5hPa Calm     78% 0.00in /  0mm WeatherDisplay:10.37 W/m2 SCT
01:15 62.9 °F /  17.2 °C 56.3 °F /  13.5 °C 30.15in /  1020.9hPa Calm     79% 0.00in /  0mm WeatherDisplay:10.37 W/m2 SCT
01:30 62.6 °F /  17 °C 56.0 °F /  13.3 °C 30.14in /  1020.5hPa Calm     79% 0.00in /  0mm WeatherDisplay:10.37 W/m2 SCT
01:45 62.3 °F /  16.8 °C 55.7 °F /  13.2 °C 30.14in /  1020.5hPa Calm     79% 0.00in /  0mm WeatherDisplay:10.37 W/m2 SCT
02:00 62.0 °F /  16.7 °C 55.8 °F /  13.2 °C 30.14in /  1020.5hPa Calm     80% 0.00in /  0mm WeatherDisplay:10.37 W/m2 SCT
02:15 61.7 °F /  16.5 °C 55.8 °F /  13.2 °C 30.13in /  1020.2hPa Calm     81% 0.00in /  0mm WeatherDisplay:10.37 W/m2 SCT
02:30 61.3 °F /  16.3 °C 55.7 °F /  13.2 °C 30.13in /  1020.2hPa Calm     82% 0.00in /  0mm WeatherDisplay:10.37 W/m2 SCT
02:45 60.9 °F /  16.1 °C 55.7 °F /  13.2 °C 30.12in /  1019.9hPa Calm     83% 0.00in /  0mm WeatherDisplay:10.37 W/m2 SCT
03:00 60.8 °F /  16 °C 55.3 °F /  12.9 °C 30.12in /  1019.9hPa Calm     82% 0.00in /  0mm WeatherDisplay:10.37 W/m2 SCT
03:15 60.8 °F /  16 °C 55.3 °F /  12.9 °C 30.11in /  1019.5hPa Calm     82% 0.00in /  0mm WeatherDisplay:10.37 W/m2 SCT
03:30 60.9 °F /  16.1 °C 55.4 °F /  13 °C 30.11in /  1019.5hPa Calm     82% 0.00in /  0mm WeatherDisplay:10.37 W/m2 SCT
03:45 60.1 °F /  15.6 °C 54.2 °F /  12.3 °C 30.11in /  1019.5hPa Calm     81% 0.00in /  0mm WeatherDisplay:10.37 W/m2 SCT
04:00 60.1 °F /  15.6 °C 54.2 °F /  12.3 °C 30.11in /  1019.5hPa Calm     81% 0.00in /  0mm WeatherDisplay:10.37 W/m2 SCT
04:15 60.1 °F /  15.6 °C 54.2 °F /  12.3 °C 30.11in /  1019.5hPa Calm     81% 0.00in /  0mm WeatherDisplay:10.37 W/m2 SCT
04:30 60.1 °F /  15.6 °C 54.2 °F /  12.3 °C 30.11in /  1019.5hPa Calm     81% 0.00in /  0mm WeatherDisplay:10.37 W/m2 SCT
04:45 60.1 °F /  15.6 °C 54.2 °F /  12.3 °C 30.11in /  1019.5hPa Calm     81% 0.00in /  0mm WeatherDisplay:10.37 W/m2 SCT
05:00 60.1 °F /  15.6 °C 54.2 °F /  12.3 °C 30.11in /  1019.5hPa Calm     81% 0.00in /  0mm WeatherDisplay:10.37 W/m2 SCT
05:15 60.1 °F /  15.6 °C 54.2 °F /  12.3 °C 30.11in /  1019.5hPa Calm     81% 0.00in /  0mm WeatherDisplay:10.37 W/m2 SCT
05:30 60.1 °F /  15.6 °C 54.2 °F /  12.3 °C 30.11in /  1019.5hPa Calm     81% 0.00in /  0mm WeatherDisplay:10.37 W/m2 SCT
05:45 60.1 °F /  15.6 °C 54.2 °F /  12.3 °C 30.12in /  1019.9hPa Calm     81% 0.00in /  0mm WeatherDisplay:10.37 W/m2 SCT
06:00 60.1 °F /  15.6 °C 54.2 °F /  12.3 °C 30.12in /  1019.9hPa Calm     81% 0.00in /  0mm WeatherDisplay:10.37 W/m2 SCT
06:15 60.1 °F /  15.6 °C 54.2 °F /  12.3 °C 30.12in /  1019.9hPa Calm     81% 0.00in /  0mm WeatherDisplay:10.37 W/m2 SCT
06:30 60.1 °F /  15.6 °C 54.2 °F /  12.3 °C 30.12in /  1019.9hPa Calm     81% 0.00in /  0mm WeatherDisplay:10.37 W/m2 SCT
06:45 60.1 °F /  15.6 °C 54.2 °F /  12.3 °C 30.12in /  1019.9hPa Calm     81% 0.00in /  0mm WeatherDisplay:10.37 W/m2 SCT
07:00 60.1 °F /  15.6 °C 54.2 °F /  12.3 °C 30.12in /  1019.9hPa Calm     81% 0.00in /  0mm WeatherDisplay:10.37 W/m2 SCT
07:15 60.1 °F /  15.6 °C 54.2 °F /  12.3 °C 30.13in /  1020.2hPa Calm     81% 0.00in /  0mm WeatherDisplay:10.37 W/m2 SCT
07:30 60.1 °F /  15.6 °C 54.2 °F /  12.3 °C 30.13in /  1020.2hPa Calm     81% 0.00in /  0mm WeatherDisplay:10.37 W/m2 SCT
07:45 60.1 °F /  15.6 °C 54.2 °F /  12.3 °C 30.14in /  1020.5hPa Calm     81% 0.00in /  0mm WeatherDisplay:10.37 W/m2 SCT
08:00 62.5 °F /  16.9 °C 57.2 °F /  14 °C 30.14in /  1020.5hPa Calm     83% 0.00in /  0mm WeatherDisplay:10.37 W/m2 SCT
08:15 63.9 °F /  17.7 °C 57.3 °F /  14.1 °C 30.15in /  1020.9hPa Calm     79% 0.00in /  0mm WeatherDisplay:10.37 W/m2 SCT
08:30 65.0 °F /  18.3 °C 58.0 °F /  14.4 °C 30.15in /  1020.9hPa Calm     78% 0.00in /  0mm WeatherDisplay:10.37 W/m2 SCT
08:45 65.8 °F /  18.8 °C 58.0 °F /  14.4 °C 30.15in /  1020.9hPa Calm     76% 0.00in /  0mm WeatherDisplay:10.37 W/m2 SCT
09:00 66.4 °F /  19.1 °C 58.6 °F /  14.8 °C 30.16in /  1021.2hPa Calm     76% 0.00in /  0mm WeatherDisplay:10.37 W/m2 SCT
09:15 66.6 °F /  19.2 °C 58.8 °F /  14.9 °C 30.16in /  1021.2hPa Calm     76% 0.00in /  0mm WeatherDisplay:10.37 W/m2 SCT
09:30 69.3 °F /  20.7 °C 59.4 °F /  15.2 °C 30.16in /  1021.2hPa Calm     71% 0.00in /  0mm WeatherDisplay:10.37 W/m2 SCT
09:45 70.5 °F /  21.4 °C 58.6 °F /  14.8 °C 30.15in /  1020.9hPa Calm   2.0mph /  3.2km/h 66% 0.00in /  0mm WeatherDisplay:10.37 W/m2 SCT
10:00 71.4 °F /  21.9 °C 58.1 °F /  14.5 °C 30.15in /  1020.9hPa Calm   2.0mph /  3.2km/h 63% 0.00in /  0mm WeatherDisplay:10.37 W/m2 SCT
10:15 71.9 °F /  22.2 °C 59.1 °F /  15.1 °C 30.15in /  1020.9hPa Calm   1.0mph /  1.6km/h 64% 0.00in /  0mm WeatherDisplay:10.37 W/m2 SCT
10:30 72.9 °F /  22.7 °C 59.6 °F /  15.3 °C 30.15in /  1020.9hPa Calm   1.0mph /  1.6km/h 63% 0.00in /  0mm WeatherDisplay:10.37 W/m2 SCT
10:45 73.2 °F /  22.9 °C 58.5 °F /  14.7 °C 30.16in /  1021.2hPa Calm   1.0mph /  1.6km/h 60% 0.00in /  0mm WeatherDisplay:10.37 W/m2 SCT
11:00 73.0 °F /  22.8 °C 59.2 °F /  15.1 °C 30.16in /  1021.2hPa Calm   2.0mph /  3.2km/h 62% 0.00in /  0mm WeatherDisplay:10.37 W/m2 SCT
11:15 72.6 °F /  22.6 °C 58.4 °F /  14.7 °C 30.15in /  1020.9hPa Calm   2.0mph /  3.2km/h 61% 0.00in /  0mm WeatherDisplay:10.37 W/m2 SCT
11:30 72.2 °F /  22.3 °C 59.3 °F /  15.2 °C 30.15in /  1020.9hPa Calm   2.0mph /  3.2km/h 64% 0.00in /  0mm WeatherDisplay:10.37 W/m2 SCT
11:45 72.0 °F /  22.2 °C 59.2 °F /  15.1 °C 30.15in /  1020.9hPa Calm   2.0mph /  3.2km/h 64% 0.00in /  0mm WeatherDisplay:10.37 W/m2 SCT
12:00 72.0 °F /  22.2 °C 59.6 °F /  15.3 °C 30.15in /  1020.9hPa Calm   1.0mph /  1.6km/h 65% 0.00in /  0mm WeatherDisplay:10.37 W/m2 SCT
12:15 72.9 °F /  22.7 °C 59.5 °F /  15.3 °C 30.14in /  1020.5hPa Calm   2.0mph /  3.2km/h 63% 0.00in /  0mm WeatherDisplay:10.37 W/m2 SCT
12:30 74.3 °F /  23.5 °C 60.0 °F /  15.6 °C 30.14in /  1020.5hPa Calm   1.0mph /  1.6km/h 61% 0.00in /  0mm WeatherDisplay:10.37 W/m2 SCT
12:45 76.3 °F /  24.6 °C 59.5 °F /  15.3 °C 30.13in /  1020.2hPa Calm   3.0mph /  4.8km/h 56% 0.00in /  0mm WeatherDisplay:10.37 W/m2 SCT
13:00 78.6 °F /  25.9 °C 60.0 °F /  15.6 °C 30.12in /  1019.9hPa West 1.0mph /  1.6km/h 5.0mph /  8km/h 53% 0.00in /  0mm WeatherDisplay:10.37 W/m2 SCT
13:15 78.0 °F /  25.6 °C 60.0 °F /  15.6 °C 30.12in /  1019.9hPa Calm   3.0mph /  4.8km/h 54% 0.00in /  0mm WeatherDisplay:10.37 W/m2 SCT
13:30 77.4 °F /  25.2 °C 60.5 °F /  15.8 °C 30.11in /  1019.5hPa Calm   5.0mph /  8km/h 56% 0.00in /  0mm WeatherDisplay:10.37 W/m2 SCT
13:45 77.6 °F /  25.3 °C 60.2 °F /  15.7 °C 30.11in /  1019.5hPa Calm   5.0mph /  8km/h 55% 0.00in /  0mm WeatherDisplay:10.37 W/m2 SCT
14:00 77.9 °F /  25.5 °C 58.9 °F /  14.9 °C 30.10in /  1019.2hPa Calm   2.0mph /  3.2km/h 52% 0.00in /  0mm WeatherDisplay:10.37 W/m2 SCT
14:15 78.2 °F /  25.7 °C 59.7 °F /  15.4 °C 30.10in /  1019.2hPa West 1.0mph /  1.6km/h 5.0mph /  8km/h 53% 0.00in /  0mm WeatherDisplay:10.37 W/m2 SCT
14:30 78.1 °F /  25.6 °C 58.5 °F /  14.7 °C 30.09in /  1018.8hPa Calm   5.0mph /  8km/h 51% 0.00in /  0mm WeatherDisplay:10.37 W/m2 SCT
14:45 79.3 °F /  26.3 °C 58.4 °F /  14.7 °C 30.09in /  1018.8hPa Calm   2.0mph /  3.2km/h 49% 0.00in /  0mm WeatherDisplay:10.37 W/m2 SCT
15:00 79.5 °F /  26.4 °C 58.1 °F /  14.5 °C 30.09in /  1018.8hPa Calm   2.0mph /  3.2km/h 48% 0.00in /  0mm WeatherDisplay:10.37 W/m2 SCT
15:15 80.1 °F /  26.7 °C 58.6 °F /  14.8 °C 30.08in /  1018.5hPa West 1.0mph /  1.6km/h 5.0mph /  8km/h 48% 0.00in /  0mm WeatherDisplay:10.37 W/m2 SCT
15:30 80.1 °F /  26.7 °C 60.9 °F /  16.1 °C 30.08in /  1018.5hPa Calm   5.0mph /  8km/h 52% 0.00in /  0mm WeatherDisplay:10.37 W/m2 SCT
15:45 77.7 °F /  25.4 °C 61.3 °F /  16.3 °C 30.07in /  1018.2hPa Calm   3.0mph /  4.8km/h 57% 0.00in /  0mm WeatherDisplay:10.37 W/m2 SCT
16:00 76.7 °F /  24.8 °C 60.9 °F /  16.1 °C 30.07in /  1018.2hPa Calm   2.0mph /  3.2km/h 58% 0.00in /  0mm WeatherDisplay:10.37 W/m2 SCT
16:15 77.4 °F /  25.2 °C 61.4 °F /  16.3 °C 30.06in /  1017.8hPa NW 1.0mph /  1.6km/h 3.0mph /  4.8km/h 58% 0.00in /  0mm WeatherDisplay:10.37 W/m2 SCT
16:30 77.4 °F /  25.2 °C 61.0 °F /  16.1 °C 30.06in /  1017.8hPa Calm   2.0mph /  3.2km/h 57% 0.00in /  0mm WeatherDisplay:10.37 W/m2 SCT
16:45 78.0 °F /  25.6 °C 61.5 °F /  16.4 °C 30.05in /  1017.5hPa Calm   3.0mph /  4.8km/h 57% 0.00in /  0mm WeatherDisplay:10.37 W/m2 SCT
17:00 78.4 °F /  25.8 °C 60.9 °F /  16.1 °C 30.05in /  1017.5hPa Calm   2.0mph /  3.2km/h 55% 0.00in /  0mm WeatherDisplay:10.37 W/m2 SCT
17:15 77.9 °F /  25.5 °C 61.4 °F /  16.3 °C 30.05in /  1017.5hPa Calm   5.0mph /  8km/h 57% 0.00in /  0mm WeatherDisplay:10.37 W/m2 SCT
17:30 76.7 °F /  24.8 °C 60.8 °F /  16 °C 30.05in /  1017.5hPa Calm   3.0mph /  4.8km/h 58% 0.00in /  0mm WeatherDisplay:10.37 W/m2 SCT
17:45 75.2 °F /  24 °C 59.9 °F /  15.5 °C 30.05in /  1017.5hPa Calm   1.0mph /  1.6km/h 59% 0.00in /  0mm WeatherDisplay:10.37 W/m2 SCT
18:00 73.7 °F /  23.2 °C 61.7 °F /  16.5 °C 30.06in /  1017.8hPa Calm   1.0mph /  1.6km/h 66% 0.00in /  0mm WeatherDisplay:10.37 W/m2 SCT
18:15 72.0 °F /  22.2 °C 62.5 °F /  16.9 °C 30.05in /  1017.5hPa Calm   1.0mph /  1.6km/h 72% 0.00in /  0mm WeatherDisplay:10.37 W/m2 SCT
18:30 71.9 °F /  22.2 °C 62.0 °F /  16.7 °C 30.05in /  1017.5hPa Calm     71% 0.00in /  0mm WeatherDisplay:10.37 W/m2 SCT
18:45 72.3 °F /  22.4 °C 62.4 °F /  16.9 °C 30.04in /  1017.2hPa Calm     71% 0.00in /  0mm WeatherDisplay:10.37 W/m2 SCT
19:00 72.6 °F /  22.6 °C 62.3 °F /  16.8 °C 30.04in /  1017.2hPa Calm   1.0mph /  1.6km/h 70% 0.00in /  0mm WeatherDisplay:10.37 W/m2 SCT
19:15 72.6 °F /  22.6 °C 62.3 °F /  16.8 °C 30.04in /  1017.2hPa Calm   1.0mph /  1.6km/h 70% 0.00in /  0mm WeatherDisplay:10.37 W/m2 SCT
19:30 72.4 °F /  22.4 °C 62.9 °F /  17.2 °C 30.05in /  1017.5hPa Calm     72% 0.00in /  0mm WeatherDisplay:10.37 W/m2 SCT
19:45 71.8 °F /  22.1 °C 62.7 °F /  17.1 °C 30.05in /  1017.5hPa Calm     73% 0.00in /  0mm WeatherDisplay:10.37 W/m2 SCT
20:15 70.1 °F /  21.2 °C 62.2 °F /  16.8 °C 30.05in /  1017.5hPa Calm     76% 0.00in /  0mm WeatherDisplay:10.37 W/m2 SCT
20:30 69.3 °F /  20.7 °C 62.1 °F /  16.7 °C 30.06in /  1017.8hPa Calm     78% 0.00in /  0mm WeatherDisplay:10.37 W/m2 SCT
20:45 68.4 °F /  20.2 °C 61.6 °F /  16.4 °C 30.06in /  1017.8hPa Calm     79% 0.00in /  0mm WeatherDisplay:10.37 W/m2 SCT
21:00 67.8 °F /  19.9 °C 61.8 °F /  16.6 °C 30.06in /  1017.8hPa Calm     81% 0.00in /  0mm WeatherDisplay:10.37 W/m2 SCT
21:15 67.2 °F /  19.6 °C 61.5 °F /  16.4 °C 30.07in /  1018.2hPa Calm     82% 0.00in /  0mm WeatherDisplay:10.37 W/m2 SCT
21:30 66.6 °F /  19.2 °C 61.3 °F /  16.3 °C 30.07in /  1018.2hPa Calm     83% 0.00in /  0mm WeatherDisplay:10.37 W/m2 SCT
21:45 66.1 °F /  18.9 °C 60.8 °F /  16 °C 30.08in /  1018.5hPa Calm     83% 0.00in /  0mm WeatherDisplay:10.37 W/m2 SCT
22:00 65.8 °F /  18.8 °C 61.2 °F /  16.2 °C 30.08in /  1018.5hPa Calm     85% 0.00in /  0mm WeatherDisplay:10.37 W/m2 SCT
22:15 65.3 °F /  18.5 °C 60.7 °F /  15.9 °C 30.09in /  1018.8hPa Calm     85% 0.00in /  0mm WeatherDisplay:10.37 W/m2 SCT
22:30 64.9 °F /  18.3 °C 60.6 °F /  15.9 °C 30.08in /  1018.5hPa Calm     86% 0.00in /  0mm WeatherDisplay:10.37 W/m2 SCT
22:45 64.6 °F /  18.1 °C 60.3 °F /  15.7 °C 30.09in /  1018.8hPa Calm     86% 0.00in /  0mm WeatherDisplay:10.37 W/m2 SCT
23:00 64.4 °F /  18 °C 60.4 °F /  15.8 °C 30.10in /  1019.2hPa Calm     87% 0.00in /  0mm WeatherDisplay:10.37 W/m2 SCT
23:15 64.5 °F /  18.1 °C 61.2 °F /  16.2 °C 30.10in /  1019.2hPa Calm     89% 0.00in /  0mm WeatherDisplay:10.37 W/m2 SCT
23:30 65.0 °F /  18.3 °C 61.4 °F /  16.3 °C 30.10in /  1019.2hPa Calm     88% 0.00in /  0mm WeatherDisplay:10.37 W/m2 SCT
23:45 65.1 °F /  18.4 °C 61.1 °F /  16.2 °C 30.11in /  1019.5hPa Calm     87% 0.00in /  0mm WeatherDisplay:10.37 W/m2 SCT
Piedmont Bend
Compliments of Weather Underground - 4 mb